Time;durP1;ratioP1;P1;durP2;ratioP2;P2;SDS_P1;SDS_P2;PMS_P1;PMS_P2;Temp;Humidity;BMP_temperature;BMP_pressure;BME280_temperature;BME280_humidity;BME280_pressure;Samples;Min_cycle;Max_cycle;Signal;HPM_P1;HPM_P2
2022/10/17 00:01:04;;;;;;;13.58;7.08;;;;;;;7.67;79.01;100526.12;1606796;89;21035;-78
2022/10/17 00:03:36;;;;;;;11.40;6.33;;;;;;;7.65;79.16;100529.12;1604767;87;21052;-79
2022/10/17 00:06:11;;;;;;;12.98;6.08;;;;;;;7.63;79.70;100525.65;1606011;89;21048;-79
2022/10/17 00:08:40;;;;;;;14.45;6.40;;;;;;;7.62;79.67;100536.88;1605520;87;21103;-79
2022/10/17 00:11:14;;;;;;;9.48;5.40;;;;;;;7.58;79.39;100536.40;1612862;88;21072;-79
2022/10/17 00:13:42;;;;;;;10.93;5.72;;;;;;;7.47;78.99;100540.15;1597366;87;21099;-79
2022/10/17 00:16:10;;;;;;;13.88;5.28;;;;;;;7.42;79.48;100539.25;1603876;88;21103;-79
2022/10/17 00:18:38;;;;;;;11.18;6.00;;;;;;;7.36;79.91;100532.28;1632471;87;21595;-79
2022/10/17 00:21:08;;;;;;;16.75;5.83;;;;;;;7.31;80.39;100530.06;1632879;87;20993;-78
2022/10/17 00:23:35;;;;;;;9.08;5.20;;;;;;;7.33;80.26;100532.23;1626844;87;21071;-79
2022/10/17 00:26:05;;;;;;;10.25;5.85;;;;;;;7.34;80.29;100539.16;1640463;87;21075;-81
2022/10/17 00:28:33;;;;;;;11.70;5.42;;;;;;;7.35;80.19;100543.91;1626774;87;21079;-79
2022/10/17 00:31:04;;;;;;;13.05;6.75;;;;;;;7.33;80.07;100538.70;1624206;87;21575;-80
2022/10/17 00:33:34;;;;;;;12.58;5.60;;;;;;;7.27;79.86;100546.83;1628828;87;21092;-79
2022/10/17 00:36:15;;;;;;;10.90;5.33;;;;;;;7.25;80.03;100549.39;1640295;87;21063;-78
2022/10/17 00:38:45;;;;;;;13.22;6.92;;;;;;;7.23;80.64;100543.77;1652365;87;21085;-78
2022/10/17 00:41:17;;;;;;;15.03;6.55;;;;;;;7.22;80.16;100544.61;1597534;89;21019;-81
2022/10/17 00:43:56;;;;;;;12.28;6.40;;;;;;;7.20;80.48;100547.16;1611480;87;21103;-81
2022/10/17 00:46:28;;;;;;;17.73;7.97;;;;;;;7.20;80.72;100552.34;1607128;89;21023;-80
2022/10/17 00:49:00;;;;;;;12.88;6.70;;;;;;;7.20;81.33;100554.92;1610830;87;21108;-80
2022/10/17 00:51:35;;;;;;;18.67;6.67;;;;;;;7.20;80.87;100554.06;1600942;89;20988;-81
2022/10/17 00:54:04;;;;;;;12.00;5.67;;;;;;;7.22;80.72;100549.78;1612349;87;21070;-81
2022/10/17 00:56:33;;;;;;;8.63;5.17;;;;;;;7.21;80.33;100545.47;1598824;88;21066;-81
2022/10/17 00:59:02;;;;;;;9.95;5.05;;;;;;;7.11;79.76;100547.08;1603272;89;21020;-81
2022/10/17 01:01:30;;;;;;;7.97;4.75;;;;;;;7.03;80.25;100546.98;1603777;87;21020;-81
2022/10/17 01:03:59;;;;;;;11.22;5.08;;;;;;;6.99;80.26;100550.38;1601806;89;21008;-81
2022/10/17 01:06:26;;;;;;;11.80;5.47;;;;;;;6.94;80.60;100545.16;1604212;87;21033;-78
2022/10/17 01:08:55;;;;;;;8.30;5.08;;;;;;;6.92;80.69;100549.44;1612074;88;21095;-80
2022/10/17 01:11:50;;;;;;;11.55;5.05;;;;;;;6.90;81.20;100547.26;1603030;88;21047;-79
2022/10/17 01:14:26;;;;;;;11.45;4.83;;;;;;;6.91;80.87;100548.13;1601526;89;21063;-79
2022/10/17 01:17:02;;;;;;;10.08;5.55;;;;;;;6.90;80.72;100547.26;1605669;88;21058;-79
2022/10/17 01:19:58;;;;;;;9.80;5.42;;;;;;;6.91;80.44;100554.58;1611446;86;21012;-80
2022/10/17 01:23:04;;;;;;;13.90;5.80;;;;;;;6.88;80.33;100556.68;1601286;88;21008;-79
2022/10/17 01:25:57;;;;;;;12.58;5.70;;;;;;;6.89;80.36;100561.45;1629851;88;21041;-79
2022/10/17 01:29:08;;;;;;;12.75;6.15;;;;;;;6.86;80.16;100559.67;1617687;88;21075;-79
2022/10/17 01:32:01;;;;;;;17.15;7.80;;;;;;;6.85;80.08;100556.66;1537973;91;21580;-79
2022/10/17 01:34:59;;;;;;;17.07;7.67;;;;;;;6.80;79.58;100557.00;1574779;91;21619;-79
2022/10/17 01:37:52;;;;;;;23.55;9.05;;;;;;;6.69;79.22;100561.18;1615286;88;21060;-79
2022/10/17 01:40:30;;;;;;;16.85;8.68;;;;;;;6.59;79.85;100563.19;1619196;87;21075;-78
2022/10/17 01:43:10;;;;;;;16.90;8.28;;;;;;;6.55;80.31;100564.42;1632428;87;21019;-81
2022/10/17 01:45:57;;;;;;;17.67;7.95;;;;;;;6.59;80.34;100560.61;1630011;86;21037;-80
2022/10/17 01:48:32;;;;;;;20.27;7.70;;;;;;;6.59;80.35;100565.77;1631543;87;21048;-79
2022/10/17 01:51:14;;;;;;;14.95;7.20;;;;;;;6.56;80.51;100567.47;1615354;87;21056;-81
2022/10/17 01:53:52;;;;;;;16.82;7.47;;;;;;;6.55;80.31;100563.13;1621095;87;21633;-81
2022/10/17 01:56:24;;;;;;;14.73;6.75;;;;;;;6.56;80.41;100563.59;1614143;87;21052;-79
2022/10/17 01:58:56;;;;;;;16.15;6.95;;;;;;;6.59;80.72;100560.17;1624199;87;21020;-80
2022/10/17 02:01:27;;;;;;;15.65;7.10;;;;;;;6.56;79.86;100564.88;1637461;87;21059;-81
2022/10/17 02:03:57;;;;;;;11.40;6.22;;;;;;;6.54;80.36;100569.13;1633531;87;21040;-80
2022/10/17 02:06:25;;;;;;;13.20;6.17;;;;;;;6.52;80.95;100570.82;1640244;87;21035;-81
2022/10/17 02:08:52;;;;;;;12.75;6.15;;;;;;;6.51;80.99;100572.97;1649611;85;21650;-81
2022/10/17 02:11:24;;;;;;;11.28;5.65;;;;;;;6.51;80.85;100581.16;1633207;87;21051;-80
2022/10/17 02:14:21;;;;;;;14.68;5.85;;;;;;;6.51;80.54;100586.33;1622502;87;21051;-81
2022/10/17 02:17:25;;;;;;;8.58;4.83;;;;;;;6.50;80.78;100584.14;1637431;86;21465;-79
2022/10/17 02:20:25;;;;;;;9.20;5.40;;;;;;;6.52;80.88;100576.42;1633140;87;21007;-79
2022/10/17 02:23:14;;;;;;;12.53;5.05;;;;;;;6.53;80.72;100587.22;1636742;87;21120;-79
2022/10/17 02:25:48;;;;;;;11.15;5.87;;;;;;;6.49;80.69;100591.89;1650844;85;21511;-78
2022/10/17 02:28:45;;;;;;;11.33;5.37;;;;;;;6.50;81.30;100596.20;1643035;87;21154;-79
2022/10/17 02:31:27;;;;;;;14.03;5.75;;;;;;;6.50;81.00;100597.06;1601345;88;21057;-79
2022/10/17 02:34:06;;;;;;;11.15;5.75;;;;;;;6.49;81.01;100599.21;1636007;87;21024;-79
2022/10/17 02:36:38;;;;;;;11.05;5.72;;;;;;;6.49;80.95;100601.80;1639396;87;21035;-78
2022/10/17 02:39:09;;;;;;;12.47;6.10;;;;;;;6.47;80.37;100607.80;1646160;87;21019;-81
2022/10/17 02:41:39;;;;;;;10.25;5.25;;;;;;;6.40;80.58;100609.39;1638208;86;21019;-81
2022/10/17 02:44:09;;;;;;;13.18;5.80;;;;;;;6.37;80.93;100608.92;1643268;87;21031;-81
2022/10/17 02:46:39;;;;;;;10.25;5.40;;;;;;;6.38;81.11;100616.25;1634132;87;21055;-79
2022/10/17 02:49:30;;;;;;;12.23;5.17;;;;;;;6.35;80.75;100614.92;1639368;87;21004;-79
2022/10/17 02:52:06;;;;;;;11.45;5.42;;;;;;;6.29;80.55;100618.70;1639882;87;21067;-81
2022/10/17 02:54:48;;;;;;;15.78;5.17;;;;;;;6.23;80.26;100622.44;1642682;87;21092;-80
2022/10/17 02:57:41;;;;;;;15.63;5.42;;;;;;;6.15;80.75;100623.20;1657250;85;20998;-79
2022/10/17 03:00:12;;;;;;;20.12;5.92;;;;;;;6.16;81.06;100630.52;1618523;87;21039;-79
2022/10/17 03:02:48;;;;;;;10.10;5.85;;;;;;;6.11;81.68;100626.58;1634627;87;21587;-81
2022/10/17 03:05:21;;;;;;;11.53;5.50;;;;;;;6.14;82.11;100630.48;1618086;87;21024;-80
2022/10/17 03:07:49;;;;;;;15.18;6.03;;;;;;;6.16;81.96;100626.21;1629373;87;21039;-80
2022/10/17 03:10:17;;;;;;;16.12;6.62;;;;;;;6.18;82.61;100629.69;1631861;86;21051;-81
2022/10/17 03:12:45;;;;;;;17.92;6.72;;;;;;;6.20;82.79;100627.14;1626647;87;21362;-80
2022/10/17 03:15:13;;;;;;;19.35;6.65;;;;;;;6.22;82.29;100643.53;1632164;87;21094;-81
2022/10/17 03:17:41;;;;;;;16.20;5.80;;;;;;;6.20;82.57;100641.77;1622732;87;21530;-81
2022/10/17 03:20:10;;;;;;;14.18;6.47;;;;;;;6.18;83.14;100636.14;1635872;87;21051;-81
2022/10/17 03:22:38;;;;;;;14.63;6.92;;;;;;;6.21;82.90;100635.75;1638556;87;21079;-81
2022/10/17 03:25:07;;;;;;;16.50;6.45;;;;;;;6.22;82.47;100640.09;1640222;87;21015;-81
2022/10/17 03:27:36;;;;;;;19.95;7.03;;;;;;;6.20;82.71;100645.22;1639820;87;21025;-81
2022/10/17 03:30:04;;;;;;;17.75;7.17;;;;;;;6.18;82.68;100646.47;1631611;87;21000;-81
2022/10/17 03:32:33;;;;;;;14.80;7.42;;;;;;;6.17;82.33;100651.64;1626035;87;21551;-81
2022/10/17 03:35:02;;;;;;;14.83;6.50;;;;;;;6.17;82.54;100653.79;1633920;87;21039;-81
2022/10/17 03:37:30;;;;;;;13.78;7.62;;;;;;;6.18;82.43;100650.78;1639243;87;21040;-81
2022/10/17 03:39:57;;;;;;;15.38;7.10;;;;;;;6.18;82.67;100654.66;1633516;87;21024;-81
2022/10/17 03:42:25;;;;;;;19.62;7.37;;;;;;;6.14;82.39;100652.44;1640611;87;21028;-79
2022/10/17 03:44:53;;;;;;;14.85;7.17;;;;;;;6.11;82.34;100658.85;1633170;87;21008;-82
2022/10/17 03:47:21;;;;;;;11.93;7.00;;;;;;;6.08;82.43;100658.78;1640823;87;21104;-81
2022/10/17 03:49:52;;;;;;;13.80;7.15;;;;;;;6.04;82.25;100663.87;1635896;87;21031;-80
2022/10/17 03:52:19;;;;;;;14.95;7.47;;;;;;;6.00;82.42;100657.77;1622102;87;21063;-81
2022/10/17 03:54:46;;;;;;;19.65;8.55;;;;;;;6.02;82.95;100662.55;1628512;87;21063;-81
2022/10/17 03:57:14;;;;;;;22.32;9.30;;;;;;;6.01;82.70;100654.77;1617870;87;21556;-81
2022/10/17 03:59:43;;;;;;;19.85;9.48;;;;;;;6.01;83.17;100666.38;1617749;87;21523;-80
2022/10/17 04:02:12;;;;;;;20.30;10.08;;;;;;;6.04;83.63;100660.86;1632991;87;21063;-80
2022/10/17 04:04:40;;;;;;;15.70;8.63;;;;;;;6.06;83.44;100666.06;1625731;87;21024;-80
2022/10/17 04:07:08;;;;;;;16.50;8.10;;;;;;;6.04;82.56;100663.44;1625444;87;21525;-80
2022/10/17 04:09:37;;;;;;;14.43;7.70;;;;;;;5.97;83.02;100662.47;1614149;87;21528;-81
2022/10/17 04:12:07;;;;;;;12.70;7.25;;;;;;;5.95;83.16;100667.16;1622137;88;21088;-81
2022/10/17 04:14:36;;;;;;;13.88;7.28;;;;;;;5.94;83.34;100664.08;1627210;88;21056;-81
2022/10/17 04:17:04;;;;;;;13.65;7.22;;;;;;;5.81;82.74;100662.99;1631690;88;21579;-81
2022/10/17 04:19:32;;;;;;;16.67;7.70;;;;;;;5.72;82.33;100657.64;1626817;87;21040;-81
2022/10/17 04:22:01;;;;;;;16.70;7.03;;;;;;;5.63;83.05;100664.80;1635241;88;21040;-80
2022/10/17 04:24:30;;;;;;;17.02;7.67;;;;;;;5.58;82.83;100665.97;1637886;88;21563;-80
2022/10/17 04:27:08;;;;;;;12.95;6.78;;;;;;;5.51;83.39;100667.98;1630135;88;21051;-81
2022/10/17 04:29:38;;;;;;;13.95;7.25;;;;;;;5.51;84.00;100678.31;1635348;86;21541;-79
2022/10/17 04:32:08;;;;;;;16.50;7.47;;;;;;;5.45;83.67;100667.86;1626257;87;21357;-81
2022/10/17 04:34:43;;;;;;;17.90;7.60;;;;;;;5.46;84.40;100666.15;1636996;86;21063;-79
2022/10/17 04:37:11;;;;;;;28.20;9.63;;;;;;;5.46;84.71;100663.56;1650266;85;21585;-79
2022/10/17 04:39:39;;;;;;;97.65;31.48;;;;;;;5.46;84.23;100664.43;1640833;87;21120;-79
2022/10/17 04:42:06;;;;;;;101.30;32.33;;;;;;;5.47;84.28;100667.87;1633380;87;21083;-79
2022/10/17 04:44:34;;;;;;;43.65;15.85;;;;;;;5.44;84.52;100674.27;1640784;87;21127;-78
2022/10/17 04:47:02;;;;;;;20.37;9.98;;;;;;;5.37;84.66;100674.15;1634812;87;20991;-81
2022/10/17 04:49:30;;;;;;;37.42;16.23;;;;;;;5.25;83.79;100680.34;1638527;87;21047;-81
2022/10/17 04:52:00;;;;;;;19.55;9.30;;;;;;;5.18;83.83;100675.87;1635676;87;21174;-81
2022/10/17 04:54:32;;;;;;;18.62;9.10;;;;;;;5.19;83.54;100672.44;1629116;87;21074;-79
2022/10/17 04:57:01;;;;;;;16.02;8.18;;;;;;;5.12;83.80;100676.59;1629255;87;21132;-79
2022/10/17 04:59:30;;;;;;;16.10;8.28;;;;;;;5.09;84.30;100673.08;1622940;87;21104;-81
2022/10/17 05:01:59;;;;;;;14.50;8.68;;;;;;;5.12;83.62;100673.16;1617699;87;21027;-81
2022/10/17 05:04:28;;;;;;;15.98;8.15;;;;;;;5.11;84.52;100669.72;1614089;87;21092;-79
2022/10/17 05:06:56;;;;;;;17.95;8.40;;;;;;;5.17;85.22;100672.83;1614479;87;21076;-80
2022/10/17 05:09:36;;;;;;;25.75;12.25;;;;;;;5.21;85.37;100686.66;1632701;87;21099;-81
2022/10/17 05:12:05;;;;;;;26.73;11.20;;;;;;;5.23;85.79;100681.98;1626252;87;21099;-82
2022/10/17 05:14:33;;;;;;;15.10;7.75;;;;;;;5.27;85.74;100683.81;1622020;87;21599;-81
2022/10/17 05:17:00;;;;;;;15.48;8.08;;;;;;;5.32;85.27;100686.06;1665453;85;21628;-81
2022/10/17 05:19:29;;;;;;;14.38;6.78;;;;;;;5.38;85.22;100691.34;1659630;85;20981;-81
2022/10/17 05:21:56;;;;;;;13.22;6.45;;;;;;;5.42;85.61;100688.84;1612254;88;21084;-80
2022/10/17 05:24:24;;;;;;;14.90;6.50;;;;;;;5.39;85.95;100693.50;1611095;87;20976;-81
2022/10/17 05:26:51;;;;;;;17.48;6.80;;;;;;;5.33;85.27;100700.72;1608226;88;20996;-81
2022/10/17 05:29:19;;;;;;;11.88;6.35;;;;;;;5.31;86.89;100694.65;1605000;87;21019;-79
2022/10/17 05:31:49;;;;;;;14.18;6.42;;;;;;;5.33;87.50;100694.66;1603718;89;21051;-80
2022/10/17 05:34:17;;;;;;;12.95;6.72;;;;;;;5.36;85.99;100700.77;1611086;87;21075;-81
2022/10/17 05:36:45;;;;;;;13.08;6.62;;;;;;;5.36;87.11;100696.03;1611519;89;21020;-80
2022/10/17 05:39:18;;;;;;;13.15;6.53;;;;;;;5.42;87.00;100707.77;1608056;87;21046;-80
2022/10/17 05:41:45;;;;;;;22.15;7.78;;;;;;;5.45;87.48;100700.50;1587959;89;21079;-81
2022/10/17 05:44:14;;;;;;;14.53;6.87;;;;;;;5.51;87.82;100705.39;1607859;87;21075;-80
2022/10/17 05:46:43;;;;;;;14.93;6.78;;;;;;;5.58;88.51;100710.25;1599062;89;21031;-80
2022/10/17 05:49:11;;;;;;;12.18;6.30;;;;;;;5.66;88.75;100711.28;1605897;87;21071;-80
2022/10/17 05:51:39;;;;;;;12.30;6.25;;;;;;;5.73;88.19;100722.59;1604329;89;21067;-80
2022/10/17 05:54:07;;;;;;;13.58;6.45;;;;;;;5.82;87.35;100721.50;1601029;87;21624;-78
2022/10/17 05:56:36;;;;;;;16.80;7.72;;;;;;;5.90;86.84;100726.81;1611504;87;21004;-80
2022/10/17 05:59:04;;;;;;;18.37;7.40;;;;;;;5.90;87.42;100725.53;1615280;88;21407;-80
2022/10/17 06:01:34;;;;;;;32.08;14.95;;;;;;;5.98;87.70;100724.00;1633840;87;21016;-81
2022/10/17 06:04:02;;;;;;;20.40;8.23;;;;;;;6.06;87.33;100740.94;1635607;87;21104;-81
2022/10/17 06:06:29;;;;;;;14.87;8.63;;;;;;;6.03;86.86;100746.02;1634525;86;21084;-81
2022/10/17 06:08:57;;;;;;;20.60;8.08;;;;;;;6.02;86.90;100748.17;1630049;86;21031;-79
2022/10/17 06:11:27;;;;;;;20.08;8.15;;;;;;;5.97;86.52;100750.25;1635409;86;21711;-80
2022/10/17 06:13:55;;;;;;;18.57;7.72;;;;;;;6.00;86.88;100749.42;1635188;87;21059;-80
2022/10/17 06:16:30;;;;;;;25.85;8.48;;;;;;;6.13;86.63;100751.84;1629487;86;21109;-81
2022/10/17 06:18:58;;;;;;;;;;;;;;;6.09;86.77;100756.08;1628325;85;21034;-80
2022/10/17 06:21:27;;;;;;;15.30;7.50;;;;;;;6.16;86.35;100755.77;1646788;85;20137;-80
2022/10/17 06:23:56;;;;;;;16.67;6.67;;;;;;;6.18;87.14;100757.95;1621870;87;21617;-80
2022/10/17 06:26:33;;;;;;;14.65;6.80;;;;;;;6.28;87.06;100758.58;1616940;87;21038;-82
2022/10/17 06:29:00;;;;;;;14.07;7.03;;;;;;;6.39;87.51;100763.96;1629505;86;21099;-80
2022/10/17 06:31:30;;;;;;;18.77;8.15;;;;;;;6.49;87.47;100763.28;1626890;86;21572;-81
2022/10/17 06:33:58;;;;;;;15.72;7.10;;;;;;;6.61;87.44;100774.69;1629419;86;21526;-81
2022/10/17 06:36:25;;;;;;;15.83;7.47;;;;;;;6.73;87.14;100772.31;1628788;86;21071;-79
2022/10/17 06:38:53;;;;;;;17.50;7.97;;;;;;;6.80;86.52;100781.04;1629418;86;21033;-78
2022/10/17 06:41:26;;;;;;;16.82;7.20;;;;;;;6.82;86.38;100780.64;1629374;85;21118;-80
2022/10/17 06:43:55;;;;;;;18.40;7.05;;;;;;;6.91;86.39;100788.57;1629916;86;21542;-80
2022/10/17 06:46:33;;;;;;;16.95;7.70;;;;;;;6.98;86.90;100794.27;1623569;86;21052;-81
2022/10/17 06:49:03;;;;;;;23.73;11.60;;;;;;;7.09;86.63;100790.16;1635689;86;21084;-79
2022/10/17 06:51:50;;;;;;;27.30;13.85;;;;;;;7.22;86.60;100798.11;1627340;86;21075;-81
2022/10/17 06:54:19;;;;;;;11.43;6.72;;;;;;;7.29;86.10;100798.23;1635222;86;21050;-82
2022/10/17 06:56:51;;;;;;;10.80;6.05;;;;;;;7.28;85.83;100805.56;1621364;87;21076;-79
2022/10/17 06:59:21;;;;;;;13.85;6.95;;;;;;;7.23;85.84;100802.02;1631334;86;21103;-81
2022/10/17 07:01:51;;;;;;;13.18;6.62;;;;;;;7.22;86.00;100795.52;1633113;86;21035;-76
2022/10/17 07:04:19;;;;;;;12.47;6.50;;;;;;;7.23;86.02;100807.63;1636444;86;21617;-78
2022/10/17 07:06:46;;;;;;;12.63;6.90;;;;;;;7.22;85.58;100801.98;1653755;85;21044;-78
2022/10/17 07:09:19;;;;;;;14.70;6.72;;;;;;;7.18;86.07;100806.23;1632321;86;21063;-77
2022/10/17 07:11:47;;;;;;;18.10;7.22;;;;;;;7.24;85.94;100802.87;1635142;86;21607;-77
2022/10/17 07:14:16;;;;;;;11.28;6.33;;;;;;;7.34;86.14;100806.05;1632948;86;21052;-79
2022/10/17 07:16:44;;;;;;;10.85;6.53;;;;;;;7.46;85.81;100808.85;1636713;86;21055;-78
2022/10/17 07:19:17;;;;;;;16.82;6.15;;;;;;;7.40;85.70;100808.77;1628396;86;21131;-79
2022/10/17 07:21:44;;;;;;;12.18;6.50;;;;;;;7.43;85.51;100806.64;1637123;86;21110;-79
2022/10/17 07:24:13;;;;;;;15.38;8.33;;;;;;;7.44;86.02;100817.42;1623492;87;21061;-78
2022/10/17 07:26:42;;;;;;;16.42;7.03;;;;;;;7.47;86.04;100800.22;1627326;87;21042;-79
2022/10/17 07:29:11;;;;;;;11.53;6.40;;;;;;;7.53;86.20;100800.74;1632496;86;21067;-80
2022/10/17 07:31:40;;;;;;;15.05;7.22;;;;;;;7.59;86.56;100811.19;1631484;86;21055;-79
2022/10/17 07:34:08;;;;;;;16.52;7.53;;;;;;;7.66;86.14;100810.44;1628708;87;21079;-80
2022/10/17 07:36:36;;;;;;;14.83;7.12;;;;;;;7.72;86.26;100808.36;1630885;86;21051;-79
2022/10/17 07:39:06;;;;;;;11.22;6.67;;;;;;;7.79;85.93;100809.30;1627187;86;21075;-79
2022/10/17 07:41:34;;;;;;;13.58;6.08;;;;;;;7.91;86.26;100805.14;1635146;86;21367;-79
2022/10/17 07:44:02;;;;;;;20.12;7.58;;;;;;;8.03;86.08;100811.34;1630744;87;21028;-79
2022/10/17 07:46:31;;;;;;;16.57;7.67;;;;;;;8.11;86.30;100800.22;1630809;86;21540;-78
2022/10/17 07:49:00;;;;;;;15.00;6.80;;;;;;;8.24;86.28;100803.84;1621986;86;21524;-79
2022/10/17 07:51:29;;;;;;;22.90;10.60;;;;;;;8.30;86.03;100802.61;1626513;87;21579;-80
2022/10/17 07:53:57;;;;;;;18.62;8.95;;;;;;;8.45;86.47;100796.75;1628175;86;21086;-86
2022/10/17 07:56:24;;;;;;;21.73;10.28;;;;;;;8.58;86.12;100797.77;1626895;87;21564;-85
2022/10/17 07:58:52;;;;;;;17.40;8.73;;;;;;;8.72;85.95;100799.20;1624697;87;21000;-82
2022/10/17 08:01:20;;;;;;;17.95;8.50;;;;;;;8.83;86.27;100798.86;1629242;86;21126;-81
2022/10/17 08:03:48;;;;;;;24.00;8.83;;;;;;;8.93;86.04;100793.33;1634909;87;21024;-82
2022/10/17 08:06:16;;;;;;;17.85;7.33;;;;;;;9.07;86.00;100799.94;1631394;86;21020;-80
2022/10/17 08:08:44;;;;;;;18.85;7.37;;;;;;;9.18;86.30;100794.41;1634059;86;21060;-80
2022/10/17 08:11:13;;;;;;;19.12;7.78;;;;;;;9.32;86.29;100792.78;1630284;86;21002;-78
2022/10/17 08:13:42;;;;;;;13.20;8.05;;;;;;;9.43;85.81;100791.58;1649476;85;21033;-79
2022/10/17 08:16:12;;;;;;;16.37;9.15;;;;;;;9.53;85.72;100795.97;1632469;86;21031;-79
2022/10/17 08:18:41;;;;;;;19.07;7.67;;;;;;;9.66;85.14;100795.59;1632057;86;21051;-79
2022/10/17 08:21:12;;;;;;;13.72;8.10;;;;;;;9.67;85.00;100786.96;1631440;86;21075;-84
2022/10/17 08:23:40;;;;;;;17.20;7.40;;;;;;;9.77;85.19;100783.98;1631599;86;21123;-78
2022/10/17 08:26:09;;;;;;;10.60;7.00;;;;;;;9.88;84.87;100782.73;1632025;86;21016;-79
2022/10/17 08:28:39;;;;;;;15.63;8.68;;;;;;;9.95;84.79;100780.17;1642002;87;21074;-78
2022/10/17 08:31:11;;;;;;;15.88;8.40;;;;;;;10.02;84.90;100780.19;1635907;86;20988;-78
2022/10/17 08:33:40;;;;;;;18.85;7.80;;;;;;;10.11;84.92;100772.00;1631368;86;21135;-78
2022/10/17 08:36:09;;;;;;;14.80;8.05;;;;;;;10.23;84.56;100767.72;1634255;86;21030;-78
2022/10/17 08:38:38;;;;;;;17.37;9.20;;;;;;;10.36;84.63;100770.80;1635298;86;21016;-78
2022/10/17 08:41:46;;;;;;;23.05;10.08;;;;;;;10.48;84.48;100763.02;1632918;87;21187;-79
2022/10/17 08:45:09;;;;;;;17.70;9.10;;;;;;;10.62;84.42;100763.05;1635464;86;22101;-78
2022/10/17 08:47:48;;;;;;;21.15;10.70;;;;;;;10.81;84.24;100768.30;1604984;88;21024;-81
2022/10/17 08:50:27;;;;;;;18.75;9.73;;;;;;;11.02;83.27;100770.02;1619294;87;21058;-80
2022/10/17 08:53:21;;;;;;;19.73;10.23;;;;;;;11.10;82.65;100770.88;1631940;86;21043;-79
2022/10/17 08:55:51;;;;;;;21.97;10.18;;;;;;;11.20;82.79;100767.84;1630074;86;21012;-78
2022/10/17 08:58:29;;;;;;;21.30;10.13;;;;;;;11.34;82.19;100766.11;1632485;86;22522;-80
2022/10/17 09:01:12;;;;;;;20.88;9.78;;;;;;;11.48;82.08;100765.64;1628889;86;21019;-79
2022/10/17 09:04:03;;;;;;;23.83;10.65;;;;;;;11.60;82.03;100761.25;1633834;86;21019;-79
2022/10/17 09:06:42;;;;;;;22.48;10.55;;;;;;;11.77;80.37;100753.41;1634280;86;21036;-80
2022/10/17 09:09:27;;;;;;;28.10;12.90;;;;;;;11.91;80.87;100757.70;1649186;85;21078;-80
2022/10/17 09:12:21;;;;;;;17.12;9.40;;;;;;;12.04;80.92;100749.86;1611166;87;21149;-79
2022/10/17 09:15:00;;;;;;;22.73;9.73;;;;;;;12.25;80.09;100753.64;1632270;86;21087;-80
2022/10/17 09:17:42;;;;;;;20.92;10.68;;;;;;;12.40;77.20;100757.91;1624722;87;21000;-79
2022/10/17 09:20:16;;;;;;;21.27;9.98;;;;;;;12.52;77.82;100755.67;1631689;87;21056;-80
2022/10/17 09:23:16;;;;;;;18.98;9.48;;;;;;;12.66;77.75;100755.58;1631561;86;21031;-79
2022/10/17 09:25:48;;;;;;;22.55;9.63;;;;;;;12.75;78.02;100752.88;1646085;85;21045;-80
2022/10/17 09:28:30;;;;;;;18.12;9.60;;;;;;;12.83;76.61;100750.21;1638511;86;21754;-80
2022/10/17 09:31:25;;;;;;;17.48;9.80;;;;;;;12.94;76.08;100747.94;1631283;86;20988;-80
2022/10/17 09:33:57;;;;;;;25.55;9.08;;;;;;;13.05;77.53;100746.98;1631450;87;21020;-80
2022/10/17 09:36:34;;;;;;;16.77;7.78;;;;;;;13.17;76.46;100739.06;1626577;86;21043;-80
2022/10/17 09:39:07;;;;;;;22.15;9.75;;;;;;;13.30;77.44;100743.30;1641638;85;21078;-81
2022/10/17 09:41:43;;;;;;;15.70;9.03;;;;;;;13.44;76.48;100739.69;1648854;85;21172;-78
2022/10/17 09:44:31;;;;;;;16.97;8.28;;;;;;;13.54;76.24;100745.23;1633420;86;21043;-81
2022/10/17 09:47:31;;;;;;;16.02;7.75;;;;;;;13.65;75.13;100747.75;1634773;86;21052;-80
2022/10/17 09:49:58;;;;;;;20.97;8.08;;;;;;;13.75;75.45;100739.33;1630431;86;21575;-81
2022/10/17 09:52:47;;;;;;;15.58;8.40;;;;;;;13.93;75.79;100743.05;1638504;85;20996;-79
2022/10/17 09:55:23;;;;;;;29.20;8.33;;;;;;;14.03;73.47;100742.03;1629317;86;21575;-78
2022/10/17 09:57:58;;;;;;;15.53;8.05;;;;;;;14.15;74.23;100737.09;1618296;87;21126;-79
2022/10/17 10:00:33;;;;;;;17.77;8.33;;;;;;;14.28;72.91;100749.13;1631303;86;21115;-82
2022/10/17 10:03:20;;;;;;;15.55;7.78;;;;;;;14.35;71.06;100739.88;1638137;86;21112;-79
2022/10/17 10:06:08;;;;;;;15.20;8.43;;;;;;;14.40;70.30;100742.82;1634092;86;21088;-78
2022/10/17 10:08:49;;;;;;;13.10;7.15;;;;;;;14.51;68.70;100734.38;1628253;86;21008;-79
2022/10/17 10:11:23;;;;;;;14.20;7.55;;;;;;;14.63;70.20;100739.05;1628602;86;21639;-80
2022/10/17 10:13:53;;;;;;;18.02;6.62;;;;;;;14.75;68.28;100740.16;1649316;86;21042;-80
2022/10/17 10:16:33;;;;;;;13.85;7.28;;;;;;;14.84;69.74;100738.71;1632011;86;21111;-80
2022/10/17 10:19:01;;;;;;;13.95;7.10;;;;;;;14.91;65.50;100728.98;1633297;86;21060;-79
2022/10/17 10:21:29;;;;;;;12.30;6.58;;;;;;;15.07;68.17;100725.66;1628067;86;21055;-80
2022/10/17 10:24:11;;;;;;;19.85;7.10;;;;;;;15.20;68.68;100716.70;1628652;87;21055;-79
2022/10/17 10:26:46;;;;;;;10.82;5.87;;;;;;;15.36;68.80;100713.77;1634768;86;21068;-80
2022/10/17 10:29:34;;;;;;;13.80;6.72;;;;;;;15.50;67.68;100716.56;1634337;86;21044;-80
2022/10/17 10:32:25;;;;;;;12.95;6.97;;;;;;;15.60;67.61;100717.25;1633228;86;21058;-79
2022/10/17 10:35:19;;;;;;;15.20;6.70;;;;;;;15.76;65.44;100724.39;1623444;87;21109;-80
2022/10/17 10:37:55;;;;;;;;;;;;;;;15.90;66.79;100717.09;1607024;88;21030;-81
2022/10/17 10:40:37;;;;;;;14.98;7.75;;;;;;;16.08;65.76;100723.70;1618370;87;20157;-81
2022/10/17 10:43:06;;;;;;;12.00;7.12;;;;;;;16.20;65.45;100721.25;1632273;86;20993;-79
2022/10/17 10:45:40;;;;;;;13.90;7.37;;;;;;;16.30;64.59;100723.23;1631325;86;21520;-79
2022/10/17 10:48:24;;;;;;;14.70;7.25;;;;;;;16.34;64.85;100719.63;1631087;86;21055;-80
2022/10/17 10:50:57;;;;;;;;;;;;;;;16.44;63.36;100715.04;1635956;88;21557;-81
2022/10/17 10:53:57;;;;;;;16.93;7.77;;;;;;;16.56;64.38;100719.99;1631344;86;20136;-80
2022/10/17 10:56:46;;;;;;;19.73;7.12;;;;;;;16.63;63.12;100715.45;1623274;86;21895;-79
2022/10/17 10:59:30;;;;;;;15.63;6.92;;;;;;;16.73;61.62;100705.13;1631658;86;21571;-79
2022/10/17 11:02:24;;;;;;;12.70;6.75;;;;;;;16.84;61.36;100704.45;1636264;86;21054;-79
2022/10/17 11:05:06;;;;;;;16.32;7.53;;;;;;;16.99;62.10;100707.58;1633865;86;21060;-79
2022/10/17 11:07:42;;;;;;;14.63;7.20;;;;;;;17.18;59.79;100707.97;1629339;86;21032;-81
2022/10/17 11:10:36;;;;;;;15.43;6.55;;;;;;;17.35;62.46;100698.30;1631519;86;21298;-82
2022/10/17 11:13:16;;;;;;;14.15;7.08;;;;;;;17.49;61.13;100706.69;1638660;86;21634;-79
2022/10/17 11:16:22;;;;;;;17.65;9.25;;;;;;;17.66;62.09;100705.73;1674486;83;20981;-80
2022/10/17 11:19:01;;;;;;;20.25;8.30;;;;;;;17.80;60.67;100707.11;1685371;85;21048;-79
2022/10/17 11:21:46;;;;;;;21.00;7.33;;;;;;;18.00;61.11;100696.88;1668595;85;20965;-80
2022/10/17 11:24:24;;;;;;;14.20;5.25;;;;;;;18.21;60.21;100695.84;1686015;83;22307;-80
2022/10/17 11:26:59;;;;;;;14.00;5.35;;;;;;;18.42;57.82;100688.58;1661242;85;21029;-79
2022/10/17 11:29:35;;;;;;;8.98;4.90;;;;;;;18.75;57.93;100693.64;1671462;85;20989;-79
2022/10/17 11:32:12;;;;;;;8.13;4.60;;;;;;;19.05;56.51;100684.31;1678469;84;21044;-83
2022/10/17 11:34:48;;;;;;;11.48;5.25;;;;;;;19.28;55.49;100693.59;1685815;83;21091;-80
2022/10/17 11:37:37;;;;;;;17.70;5.30;;;;;;;19.47;56.92;100691.60;1682284;84;21080;-84
2022/10/17 11:40:28;;;;;;;8.05;4.50;;;;;;;19.69;55.94;100687.71;1661832;84;21024;-79
2022/10/17 11:43:21;;;;;;;11.70;5.80;;;;;;;19.91;53.30;100683.83;1677379;83;21103;-80
2022/10/17 11:46:13;;;;;;;8.88;5.28;;;;;;;20.32;53.74;100685.31;1678100;84;21036;-80
2022/10/17 11:49:10;;;;;;;10.72;5.55;;;;;;;20.58;46.12;100682.07;1679874;84;21127;-81
2022/10/17 11:51:50;;;;;;;9.53;4.58;;;;;;;20.79;49.27;100679.01;1679672;85;21029;-81
2022/10/17 11:54:27;;;;;;;12.43;6.05;;;;;;;21.02;48.52;100668.31;1685676;83;21458;-80
2022/10/17 11:57:36;;;;;;;11.20;5.60;;;;;;;21.25;50.80;100668.64;1685963;83;21103;-82
2022/10/17 12:00:36;;;;;;;12.30;4.55;;;;;;;21.43;49.15;100671.42;1681494;84;21009;-81